createdAt,value
2023-06-08T00:00:33.010Z,18.10
2023-06-08T00:03:45.098Z,19.30
2023-06-08T00:06:53.805Z,19.45
2023-06-08T00:09:57.583Z,18.10
2023-06-08T00:13:00.145Z,19.60
2023-06-08T00:16:08.644Z,17.65
2023-06-08T00:19:13.406Z,21.70
2023-06-08T00:22:22.733Z,25.65
2023-06-08T00:25:30.505Z,25.80
2023-06-08T00:28:35.001Z,23.83
2023-06-08T00:31:40.206Z,29.13
2023-06-08T00:37:51.734Z,25.92
2023-06-08T00:40:56.498Z,24.10
2023-06-08T00:43:58.850Z,26.02
2023-06-08T00:47:01.375Z,25.92
2023-06-08T00:50:08.585Z,24.27
2023-06-08T00:53:11.113Z,26.33
2023-06-08T00:56:19.874Z,27.02
2023-06-08T00:59:25.215Z,30.15
2023-06-08T01:02:33.041Z,22.38
2023-06-08T01:05:44.554Z,20.80
2023-06-08T01:09:17.944Z,20.33
2023-06-08T01:12:25.559Z,16.58
2023-06-08T01:15:39.305Z,23.08
2023-06-08T01:18:46.056Z,25.90
2023-06-08T01:22:03.265Z,19.52
2023-06-08T01:25:09.856Z,18.73
2023-06-08T01:31:19.796Z,18.05
2023-06-08T01:34:24.349Z,21.20
2023-06-08T01:37:46.797Z,20.30
2023-06-08T01:40:58.375Z,20.33
2023-06-08T01:44:06.611Z,20.23
2023-06-08T01:47:19.497Z,19.75
2023-06-08T01:50:28.984Z,20.67
2023-06-08T01:53:31.622Z,21.75
2023-06-08T01:56:37.152Z,19.00
2023-06-08T01:59:42.466Z,21.48
2023-06-08T02:02:46.372Z,18.48
2023-06-08T02:05:49.195Z,17.67
2023-06-08T02:08:51.483Z,19.85
2023-06-08T02:12:15.853Z,18.38
2023-06-08T02:15:21.635Z,18.30
2023-06-08T02:18:28.561Z,20.55
2023-06-08T02:21:31.218Z,19.63
2023-06-08T02:24:33.515Z,19.55
2023-06-08T02:27:38.482Z,19.70
2023-06-08T02:30:42.910Z,20.27
2023-06-08T02:33:45.513Z,21.08
2023-06-08T02:36:53.013Z,19.65
2023-06-08T02:39:57.943Z,19.60
2023-06-08T02:43:07.215Z,26.13
2023-06-08T02:46:09.609Z,22.80
2023-06-08T02:49:12.283Z,23.02
2023-06-08T02:52:17.296Z,22.67
2023-06-08T02:55:19.646Z,22.67
2023-06-08T02:58:24.644Z,25.77
2023-06-08T03:01:38.883Z,24.15
2023-06-08T03:04:49.601Z,24.67
2023-06-08T03:07:54.186Z,18.25
2023-06-08T03:10:56.818Z,24.45
2023-06-08T03:13:59.277Z,20.70
2023-06-08T03:17:06.195Z,26.95
2023-06-08T03:20:12.804Z,22.95
2023-06-08T03:23:25.545Z,22.67
2023-06-08T03:26:29.651Z,23.13
2023-06-08T03:29:35.652Z,19.88
2023-06-08T03:32:49.974Z,23.67
2023-06-08T03:35:57.409Z,22.33
2023-06-08T03:39:12.409Z,22.60
2023-06-08T03:42:17.388Z,23.58
2023-06-08T03:45:29.437Z,22.02
2023-06-08T03:48:32.832Z,24.50
2023-06-08T03:51:42.853Z,23.27
2023-06-08T03:54:46.355Z,24.27
2023-06-08T03:57:51.982Z,23.10
2023-06-08T04:00:54.693Z,27.70
2023-06-08T04:04:00.181Z,19.52
2023-06-08T04:07:06.357Z,23.85
2023-06-08T04:10:13.978Z,22.98
2023-06-08T04:13:20.439Z,26.60
2023-06-08T04:16:23.481Z,25.33
2023-06-08T04:19:29.251Z,24.42
2023-06-08T04:22:34.500Z,23.33
2023-06-08T04:25:40.348Z,20.10
2023-06-08T04:28:43.297Z,20.92
2023-06-08T04:31:46.442Z,22.63
2023-06-08T04:34:49.319Z,20.10
2023-06-08T04:37:54.340Z,23.35
2023-06-08T04:41:02.374Z,22.60
2023-06-08T04:44:14.375Z,24.08
2023-06-08T04:47:16.939Z,22.60
2023-06-08T04:50:22.020Z,21.63
2023-06-08T04:53:27.178Z,20.75
2023-06-08T04:56:30.864Z,21.55
2023-06-08T04:59:33.956Z,17.48
2023-06-08T05:02:38.600Z,21.23
2023-06-08T05:05:41.078Z,19.80
2023-06-08T05:08:44.820Z,20.20
2023-06-08T05:11:48.519Z,23.17
2023-06-08T05:14:51.283Z,21.60
2023-06-08T05:17:53.914Z,20.05
2023-06-08T05:20:56.376Z,20.85
2023-06-08T05:23:58.754Z,18.60
2023-06-08T05:27:01.099Z,18.48
2023-06-08T05:30:06.363Z,17.63
2023-06-08T05:33:08.875Z,23.27
2023-06-08T05:36:13.394Z,18.23
2023-06-08T05:39:16.000Z,21.42
2023-06-08T05:42:18.369Z,23.08
2023-06-08T05:45:22.938Z,18.52
2023-06-08T05:48:25.625Z,16.58
2023-06-08T05:51:30.592Z,18.85
2023-06-08T05:54:32.934Z,18.42
2023-06-08T05:57:35.578Z,17.85
2023-06-08T06:00:41.104Z,18.50
2023-06-08T06:03:48.414Z,20.13
2023-06-08T06:06:51.060Z,20.60
2023-06-08T06:09:56.046Z,18.92
2023-06-08T06:13:00.446Z,19.75
2023-06-08T06:16:07.715Z,16.95
2023-06-08T06:19:10.188Z,20.33
2023-06-08T06:22:14.917Z,21.23
2023-06-08T06:25:20.072Z,19.25
2023-06-08T06:28:24.840Z,21.77
2023-06-08T06:31:32.276Z,22.52
2023-06-08T06:34:38.914Z,21.50
2023-06-08T06:37:41.219Z,20.65
2023-06-08T06:40:43.505Z,21.17
2023-06-08T06:43:46.040Z,20.13
2023-06-08T06:46:52.632Z,18.50
2023-06-08T06:49:57.558Z,20.27
2023-06-08T06:52:59.958Z,18.90
2023-06-08T06:56:02.409Z,19.85
2023-06-08T06:59:06.042Z,20.77
2023-06-08T07:02:08.379Z,23.13
2023-06-08T07:05:15.656Z,22.17
2023-06-08T07:08:18.524Z,21.88
2023-06-08T07:11:25.767Z,23.08
2023-06-08T07:14:28.173Z,21.23
2023-06-08T07:17:32.873Z,22.58
2023-06-08T07:20:35.288Z,22.83
2023-06-08T07:24:15.133Z,21.45
2023-06-08T07:27:00.686Z,18.23
2023-06-08T07:30:03.872Z,22.17
2023-06-08T07:33:07.477Z,21.35
2023-06-08T07:36:09.897Z,22.88
2023-06-08T07:39:14.751Z,19.10
2023-06-08T07:42:22.058Z,20.10
2023-06-08T07:45:24.625Z,18.95
2023-06-08T07:48:27.032Z,18.73
2023-06-08T07:51:32.218Z,20.08
2023-06-08T07:54:37.021Z,20.15
2023-06-08T07:57:42.019Z,19.08
2023-06-08T08:03:52.688Z,19.10
2023-06-08T08:06:58.582Z,19.58
2023-06-08T08:10:04.612Z,17.90
2023-06-08T08:13:08.438Z,23.00
2023-06-08T08:16:13.164Z,22.08
2023-06-08T08:19:17.244Z,20.58
2023-06-08T08:22:19.808Z,18.83
2023-06-08T08:25:22.803Z,23.25
2023-06-08T08:28:25.148Z,16.52
2023-06-08T08:31:27.479Z,20.00
2023-06-08T08:34:29.925Z,16.95
2023-06-08T08:37:35.203Z,17.73
2023-06-08T08:40:38.243Z,20.38
2023-06-08T08:43:55.799Z,18.17
2023-06-08T08:47:03.542Z,17.27
2023-06-08T08:50:10.967Z,21.00
2023-06-08T08:53:15.705Z,17.58
2023-06-08T08:56:26.411Z,32.80
2023-06-08T08:59:34.561Z,16.60
2023-06-08T09:02:39.657Z,19.38
2023-06-08T09:08:51.965Z,17.63
2023-06-08T09:12:01.806Z,20.80
2023-06-08T09:15:04.697Z,17.30
2023-06-08T09:18:18.604Z,16.75
2023-06-08T09:21:28.254Z,16.77
2023-06-08T09:24:33.128Z,16.50
2023-06-08T09:27:38.659Z,14.20
2023-06-08T09:30:49.961Z,15.40
2023-06-08T09:34:05.378Z,17.02
2023-06-08T09:37:09.230Z,14.43
2023-06-08T09:40:20.264Z,15.27
2023-06-08T09:43:35.096Z,14.63
2023-06-08T09:46:42.587Z,15.95
2023-06-08T09:49:47.577Z,12.70
2023-06-08T09:52:53.092Z,13.43
2023-06-08T09:55:56.160Z,11.85
2023-06-08T09:59:05.485Z,13.10
2023-06-08T10:02:25.955Z,8.95
2023-06-08T10:05:31.826Z,9.75
2023-06-08T10:08:38.319Z,11.70
2023-06-08T10:11:40.831Z,8.60
2023-06-08T10:14:48.538Z,10.40
2023-06-08T10:17:54.508Z,9.70
2023-06-08T10:20:58.350Z,9.38
2023-06-08T10:24:03.583Z,10.25
2023-06-08T10:27:18.922Z,11.48
2023-06-08T10:30:49.964Z,11.98
2023-06-08T10:33:55.367Z,9.18
2023-06-08T10:36:57.659Z,11.38
2023-06-08T10:40:01.199Z,11.45
2023-06-08T10:43:25.960Z,12.93
2023-06-08T10:46:48.306Z,10.50
2023-06-08T10:49:58.605Z,9.18
2023-06-08T10:53:01.048Z,11.73
2023-06-08T10:56:05.857Z,10.50
2023-06-08T10:59:10.528Z,10.98
2023-06-08T11:02:12.929Z,9.68
2023-06-08T11:05:17.088Z,7.25
2023-06-08T11:08:19.768Z,10.13
2023-06-08T11:11:24.273Z,10.50
2023-06-08T11:14:27.070Z,8.93
2023-06-08T11:17:40.516Z,9.68
2023-06-08T11:20:43.802Z,9.77
2023-06-08T11:23:46.528Z,10.70
2023-06-08T11:27:03.056Z,9.85
2023-06-08T11:30:17.953Z,7.75
2023-06-08T11:33:22.824Z,8.02
2023-06-08T11:36:26.693Z,7.72
2023-06-08T11:39:34.176Z,8.10
2023-06-08T11:42:40.790Z,4.85
2023-06-08T11:45:44.142Z,5.43
2023-06-08T11:48:47.779Z,8.95
2023-06-08T11:51:54.531Z,6.60
2023-06-08T11:55:01.112Z,4.85
2023-06-08T11:58:09.121Z,4.65
2023-06-08T12:01:14.314Z,4.82
2023-06-08T12:04:16.611Z,6.30
2023-06-08T12:07:19.058Z,5.40
2023-06-08T12:10:21.620Z,4.85
2023-06-08T12:13:26.172Z,6.70
2023-06-08T12:16:30.887Z,7.10
2023-06-08T12:19:35.643Z,5.97
2023-06-08T12:22:37.876Z,7.03
2023-06-08T12:25:42.572Z,6.30
2023-06-08T12:28:44.934Z,7.97
2023-06-08T12:31:49.729Z,9.07
2023-06-08T12:34:54.359Z,8.50
2023-06-08T12:37:56.693Z,7.45
2023-06-08T12:41:01.250Z,9.50
2023-06-08T12:44:05.958Z,9.32
2023-06-08T12:47:10.289Z,8.93
2023-06-08T12:50:13.784Z,8.73
2023-06-08T12:53:21.100Z,8.65
2023-06-08T12:56:26.272Z,10.68
2023-06-08T12:59:30.817Z,9.93
2023-06-08T13:02:33.651Z,10.02
2023-06-08T13:05:36.283Z,8.50
2023-06-08T13:08:40.901Z,10.60
2023-06-08T13:11:45.457Z,9.48
2023-06-08T13:14:48.255Z,8.85
2023-06-08T13:17:52.788Z,11.23
2023-06-08T13:20:55.253Z,11.15
2023-06-08T13:23:57.691Z,11.15
2023-06-08T13:26:59.949Z,10.38
2023-06-08T13:30:02.268Z,13.52
2023-06-08T13:33:09.086Z,10.15
2023-06-08T13:36:11.462Z,9.90
2023-06-08T13:39:14.147Z,12.23
2023-06-08T13:42:18.495Z,9.35
2023-06-08T13:45:21.802Z,7.95
2023-06-08T13:48:28.673Z,9.13
2023-06-08T13:51:30.977Z,9.05
2023-06-08T13:54:39.876Z,9.38
2023-06-08T13:57:42.180Z,8.00
2023-06-08T14:00:47.201Z,8.70
2023-06-08T14:06:53.906Z,7.72
2023-06-08T14:09:58.674Z,7.28
2023-06-08T14:13:03.679Z,8.10
2023-06-08T14:19:09.047Z,8.48
2023-06-08T14:22:15.220Z,7.13
2023-06-08T14:25:19.967Z,8.02
2023-06-08T14:28:24.516Z,7.20
2023-06-08T14:31:26.903Z,8.55
2023-06-08T14:34:34.562Z,7.93
2023-06-08T14:37:39.242Z,7.28
2023-06-08T14:40:42.001Z,7.63
2023-06-08T14:46:53.419Z,7.82
2023-06-08T14:49:55.912Z,6.93
2023-06-08T14:53:00.727Z,6.93
2023-06-08T14:56:05.577Z,6.30
2023-06-08T14:59:10.540Z,7.60
2023-06-08T15:02:15.349Z,5.72
2023-06-08T15:05:22.508Z,7.30
2023-06-08T15:08:24.813Z,5.47
2023-06-08T15:11:29.331Z,6.68
2023-06-08T15:14:34.239Z,5.20
2023-06-08T15:20:41.173Z,5.20
2023-06-08T15:23:46.619Z,4.68
2023-06-08T15:26:49.371Z,3.78
2023-06-08T15:29:52.384Z,8.18
2023-06-08T15:33:07.639Z,9.25
2023-06-08T15:36:10.096Z,5.75
2023-06-08T15:39:12.788Z,6.68
2023-06-08T15:42:15.238Z,6.82
2023-06-08T15:45:17.724Z,5.28
2023-06-08T15:48:20.195Z,4.97
2023-06-08T15:51:31.752Z,4.75
2023-06-08T15:54:35.460Z,4.95
2023-06-08T15:57:37.820Z,3.85
2023-06-08T16:00:41.038Z,4.57
2023-06-08T16:03:43.471Z,5.10
2023-06-08T16:06:46.966Z,4.78
2023-06-08T16:09:49.338Z,5.18
2023-06-08T16:12:53.821Z,5.30
2023-06-08T16:15:56.364Z,4.93
2023-06-08T16:18:58.714Z,7.95
2023-06-08T16:22:01.053Z,5.75
2023-06-08T16:25:03.948Z,6.13
2023-06-08T16:28:06.542Z,4.20
2023-06-08T16:31:11.239Z,6.78
2023-06-08T16:34:13.520Z,5.65
2023-06-08T16:37:15.927Z,5.35
2023-06-08T16:40:18.413Z,4.88
2023-06-08T16:43:20.990Z,5.38
2023-06-08T16:46:23.665Z,5.45
2023-06-08T16:49:26.007Z,5.88
2023-06-08T16:52:28.228Z,6.78
2023-06-08T16:55:33.046Z,5.35
2023-06-08T16:58:36.733Z,4.50
2023-06-08T17:01:41.465Z,8.63
2023-06-08T17:04:43.748Z,5.53
2023-06-08T17:07:46.113Z,6.88
2023-06-08T17:10:48.359Z,6.05
2023-06-08T17:13:50.781Z,6.82
2023-06-08T17:16:58.007Z,6.05
2023-06-08T17:20:01.663Z,6.80
2023-06-08T17:23:03.984Z,7.18
2023-06-08T17:26:08.633Z,8.18
2023-06-08T17:29:11.269Z,6.75
2023-06-08T17:32:16.354Z,6.60
2023-06-08T17:38:23.963Z,6.15
2023-06-08T17:41:26.326Z,7.30
2023-06-08T17:44:28.711Z,7.28
2023-06-08T17:47:34.636Z,7.70
2023-06-08T17:50:39.465Z,6.97
2023-06-08T17:53:44.765Z,7.32
2023-06-08T17:56:49.315Z,5.45
2023-06-08T17:59:54.470Z,6.25
2023-06-08T18:02:57.387Z,6.35
2023-06-08T18:06:11.512Z,7.93
2023-06-08T18:09:24.015Z,6.65
2023-06-08T18:12:31.487Z,7.43
2023-06-08T18:15:33.942Z,6.80
2023-06-08T18:18:36.512Z,7.80
2023-06-08T18:21:40.565Z,6.85
2023-06-08T18:24:42.951Z,8.35
2023-06-08T18:27:45.235Z,7.50
2023-06-08T18:30:47.570Z,7.20
2023-06-08T18:33:53.311Z,7.13
2023-06-08T18:36:55.635Z,6.30
2023-06-08T18:39:59.443Z,7.65
2023-06-08T18:43:05.572Z,6.80
2023-06-08T18:46:10.288Z,8.00
2023-06-08T18:49:13.168Z,8.50
2023-06-08T18:52:20.452Z,6.38
2023-06-08T18:55:25.064Z,7.22
2023-06-08T18:58:30.064Z,7.55
2023-06-08T19:01:32.470Z,5.38
2023-06-08T19:04:35.082Z,7.68
2023-06-08T19:07:42.136Z,8.93
2023-06-08T19:10:49.686Z,8.02
2023-06-08T19:13:54.099Z,6.55
2023-06-08T19:16:59.759Z,8.77
2023-06-08T19:20:02.445Z,7.38
2023-06-08T19:26:09.446Z,6.55
2023-06-08T19:29:14.285Z,9.10
2023-06-08T19:32:19.112Z,8.88
2023-06-08T19:35:24.177Z,7.57
2023-06-08T19:38:26.829Z,8.50
2023-06-08T19:41:29.370Z,6.50
2023-06-08T19:44:31.744Z,9.02
2023-06-08T19:47:36.661Z,7.47
2023-06-08T19:53:41.716Z,6.72
2023-06-08T19:56:46.301Z,9.75
2023-06-08T19:59:53.757Z,10.07
2023-06-08T20:02:58.155Z,7.93
2023-06-08T20:06:01.129Z,8.35
2023-06-08T20:09:11.520Z,8.40
2023-06-08T20:12:13.952Z,9.80
2023-06-08T20:15:20.853Z,7.75
2023-06-08T20:18:23.350Z,8.18
2023-06-08T20:21:25.788Z,9.95
2023-06-08T20:24:29.168Z,9.45
2023-06-08T20:27:33.656Z,7.70
2023-06-08T20:30:41.657Z,9.43
2023-06-08T20:33:46.413Z,8.70
2023-06-08T20:36:48.679Z,8.90
2023-06-08T20:39:51.025Z,8.95
2023-06-08T20:42:57.843Z,10.68
2023-06-08T20:46:02.724Z,8.32
2023-06-08T20:49:06.344Z,11.88
2023-06-08T20:52:11.168Z,10.93
2023-06-08T20:55:13.581Z,10.13
2023-06-08T20:58:16.821Z,10.38
2023-06-08T21:01:21.445Z,10.10
2023-06-08T21:04:30.739Z,10.45
2023-06-08T21:07:33.184Z,8.88
2023-06-08T21:10:38.698Z,10.93
2023-06-08T21:13:43.688Z,9.73
2023-06-08T21:16:49.638Z,10.02
2023-06-08T21:22:56.302Z,11.48
2023-06-08T21:25:58.640Z,11.35
2023-06-08T21:29:01.328Z,10.60
2023-06-08T21:32:04.415Z,10.50
2023-06-08T21:35:07.434Z,10.98
2023-06-08T21:38:12.380Z,11.52
2023-06-08T21:41:15.686Z,12.32
2023-06-08T21:44:18.103Z,11.88
2023-06-08T21:47:22.695Z,10.20
2023-06-08T21:50:27.397Z,13.50
2023-06-08T21:53:29.710Z,11.80
2023-06-08T21:56:35.031Z,12.07
2023-06-08T21:59:39.550Z,13.07
2023-06-08T22:02:44.357Z,11.43
2023-06-08T22:05:46.677Z,13.00
2023-06-08T22:08:51.230Z,11.18
2023-06-08T22:11:54.897Z,13.38
2023-06-08T22:15:00.287Z,13.23
2023-06-08T22:18:07.120Z,12.75
2023-06-08T22:21:12.782Z,14.32
2023-06-08T22:24:17.885Z,13.95
2023-06-08T22:30:24.930Z,14.00
2023-06-08T22:33:27.430Z,15.15
2023-06-08T22:36:33.794Z,15.40
2023-06-08T22:39:36.112Z,15.40
2023-06-08T22:42:40.735Z,14.15
2023-06-08T22:45:46.394Z,14.65
2023-06-08T22:48:54.259Z,17.63
2023-06-08T22:52:03.085Z,14.32
2023-06-08T22:55:08.727Z,16.75
2023-06-08T22:58:11.402Z,15.68
2023-06-08T23:01:19.847Z,15.52
2023-06-08T23:04:22.600Z,16.50
2023-06-08T23:10:31.943Z,19.60
2023-06-08T23:13:38.982Z,15.25
2023-06-08T23:16:41.410Z,16.55
2023-06-08T23:19:48.597Z,15.95
2023-06-08T23:22:56.529Z,13.80
2023-06-08T23:26:01.126Z,16.67
2023-06-08T23:29:06.706Z,16.08
2023-06-08T23:32:09.115Z,18.95
2023-06-08T23:35:13.898Z,18.13
2023-06-08T23:38:16.216Z,15.52
2023-06-08T23:41:22.433Z,14.52
2023-06-08T23:44:27.108Z,18.90
2023-06-08T23:47:29.495Z,16.80
2023-06-08T23:50:40.282Z,17.73
2023-06-08T23:53:45.009Z,19.15
2023-06-08T23:56:49.732Z,18.05
2023-06-08T23:59:52.026Z,17.80
